Time;durP1;ratioP1;P1;durP2;ratioP2;P2;SDS_P1;SDS_P2;PMS_P1;PMS_P2;Temp;Humidity;BMP_temperature;BMP_pressure;BME280_temperature;BME280_humidity;BME280_pressure;Samples;Min_cycle;Max_cycle;Signal;HPM_P1;HPM_P2
2023/08/26 00:01:28;;;;;;;;;;;;;;;28.57;54.63;101250.53;5134043;27;19915;-82
2023/08/26 00:03:53;;;;;;;;;;;;;;;28.57;54.67;101248.72;5125003;27;19916;-82
2023/08/26 00:06:19;;;;;;;;;;;;;;;28.55;54.58;101245.16;5125256;27;19923;-81
2023/08/26 00:08:44;;;;;;;;;;;;;;;28.56;54.73;101252.34;5104496;27;19920;-82
2023/08/26 00:11:10;;;;;;;;;;;;;;;28.54;54.76;101248.78;5114499;28;20029;-81
2023/08/26 00:13:35;;;;;;;;;;;;;;;28.55;54.78;101249.66;5114382;27;20530;-82
2023/08/26 00:16:00;;;;;;;;;;;;;;;28.54;54.44;101251.47;5113039;28;19912;-81
2023/08/26 00:18:26;;;;;;;;;;;;;;;28.54;54.79;101245.22;5113158;27;19918;-81
2023/08/26 00:20:52;;;;;;;;;;;;;;;28.53;54.46;101243.41;5113487;27;20396;-82
2023/08/26 00:23:17;;;;;;;;;;;;;;;28.52;54.66;101237.16;5113283;28;20381;-82
2023/08/26 00:25:42;;;;;;;;;;;;;;;28.52;54.71;101236.28;5121988;27;19919;-82
2023/08/26 00:28:08;;;;;;;;;;;;;;;28.51;54.72;101242.53;5114284;27;19918;-81
2023/08/26 00:30:33;;;;;;;;;;;;;;;28.49;54.68;101250.66;5113476;28;20492;-82
2023/08/26 00:32:59;;;;;;;;;;;;;;;28.49;54.70;101250.66;5115639;27;20377;-81
2023/08/26 00:35:25;;;;;;;;;;;;;;;28.49;54.67;101249.72;5134710;27;19919;-82
2023/08/26 00:37:51;;;;;;;;;;;;;;;28.49;54.60;101239.91;5116065;27;19911;-82
2023/08/26 00:40:17;;;;;;;;;;;;;;;28.46;54.63;101239.88;5113808;27;19916;-81
2023/08/26 00:42:42;;;;;;;;;;;;;;;28.45;54.74;101243.50;5120616;27;19923;-81
2023/08/26 00:45:08;;;;;;;;;;;;;;;28.47;54.58;101239.00;5126475;27;20399;-82
2023/08/26 00:47:33;;;;;;;;;;;;;;;28.45;54.72;101235.44;5102639;27;20383;-82
2023/08/26 00:49:58;;;;;;;;;;;;;;;28.45;54.81;101242.59;5120627;27;19915;-82
2023/08/26 00:52:24;;;;;;;;;;;;;;;28.47;54.63;101246.13;5127309;27;19927;-81
2023/08/26 00:54:50;;;;;;;;;;;;;;;28.45;54.81;101240.81;5114130;28;20465;-82
2023/08/26 00:57:15;;;;;;;;;;;;;;;28.43;54.83;101239.94;5117833;27;19920;-81
2023/08/26 00:59:40;;;;;;;;;;;;;;;28.45;54.74;101239.88;5115126;27;19962;-79
2023/08/26 01:02:06;;;;;;;;;;;;;;;28.44;54.66;101236.31;5114067;27;20366;-81
2023/08/26 01:04:31;;;;;;;;;;;;;;;28.43;54.64;101235.44;5140685;27;19921;-81
2023/08/26 01:06:57;;;;;;;;;;;;;;;28.42;54.53;101232.78;5110667;27;20354;-81
2023/08/26 01:09:22;;;;;;;;;;;;;;;28.41;54.60;101239.94;5116982;27;20413;-80
2023/08/26 01:12:23;;;;;;;;;;;;;;;28.43;54.77;101237.25;5123498;27;20381;-81
2023/08/26 01:14:51;;;;;;;;;;;;;;;28.44;54.66;101244.38;5071402;28;19942;-80
2023/08/26 01:17:16;;;;;;;;;;;;;;;28.42;54.55;101241.72;5102229;28;19911;-82
2023/08/26 01:19:42;;;;;;;;;;;;;;;28.38;54.55;101239.97;5113271;27;19919;-81
2023/08/26 01:22:08;;;;;;;;;;;;;;;28.38;54.71;101239.09;5106441;28;19919;-81
2023/08/26 01:24:34;;;;;;;;;;;;;;;28.39;54.84;101238.19;5112611;28;19912;-82
2023/08/26 01:26:59;;;;;;;;;;;;;;;28.39;54.84;101230.13;5124023;27;20005;-81
2023/08/26 01:29:25;;;;;;;;;;;;;;;28.37;54.55;101232.84;5127289;27;19919;-81
2023/08/26 01:32:11;;;;;;;;;;;;;;;28.36;54.69;101238.22;5113271;28;19919;-81
2023/08/26 01:34:37;;;;;;;;;;;;;;;28.35;54.67;101234.66;5118935;27;19916;-83
2023/08/26 01:37:02;;;;;;;;;;;;;;;28.36;54.74;101233.75;5113198;28;20437;-82
2023/08/26 01:39:27;;;;;;;;;;;;;;;28.35;54.94;101226.59;5114377;27;19922;-81
2023/08/26 01:41:53;;;;;;;;;;;;;;;28.36;54.51;101225.69;5113002;27;20420;-81
2023/08/26 01:44:18;;;;;;;;;;;;;;;28.36;54.80;101219.41;5124211;27;19916;-83
2023/08/26 01:46:44;;;;;;;;;;;;;;;28.37;54.67;101224.78;5124103;27;19920;-81
2023/08/26 01:49:10;;;;;;;;;;;;;;;28.36;54.66;101219.41;5118739;27;20290;-83
2023/08/26 01:51:35;;;;;;;;;;;;;;;28.34;54.59;101214.06;5097655;28;20323;-83
2023/08/26 01:54:01;;;;;;;;;;;;;;;28.34;54.66;101213.16;5094833;28;19915;-82
2023/08/26 01:56:26;;;;;;;;;;;;;;;28.34;54.49;101215.84;5118017;27;20320;-82
2023/08/26 01:58:52;;;;;;;;;;;;;;;28.33;54.80;101214.09;5123860;27;19947;-82
2023/08/26 02:01:17;;;;;;;;;;;;;;;28.33;54.75;101211.41;5120060;27;20411;-83
2023/08/26 02:04:05;;;;;;;;;;;;;;;28.31;54.69;101213.22;5116844;27;19963;-84
2023/08/26 02:06:33;;;;;;;;;;;;;;;28.31;54.91;101216.78;5132990;27;19919;-84
2023/08/26 02:09:17;;;;;;;;;;;;;;;28.31;54.77;101213.22;5132720;27;19923;-83
2023/08/26 02:12:02;;;;;;;;;;;;;;;28.30;54.78;101219.47;5123343;27;19915;-83
2023/08/26 02:14:27;;;;;;;;;;;;;;;28.30;54.70;101220.41;5121576;27;19911;-83
2023/08/26 02:16:53;;;;;;;;;;;;;;;28.28;54.61;101216.84;5114262;28;19979;-84
2023/08/26 02:19:20;;;;;;;;;;;;;;;28.27;54.78;101224.91;5123636;27;19912;-84
2023/08/26 02:21:55;;;;;;;;;;;;;;;28.27;54.62;101214.16;5112247;28;20048;-83
2023/08/26 02:24:20;;;;;;;;;;;;;;;28.28;54.53;101219.53;5112276;28;19946;-82
2023/08/26 02:26:45;;;;;;;;;;;;;;;28.29;54.68;101225.78;5094236;27;19964;-84
2023/08/26 02:29:11;;;;;;;;;;;;;;;28.25;54.59;101232.97;5114202;28;19922;-82
2023/08/26 02:31:36;;;;;;;;;;;;;;;28.23;54.69;101229.41;5112555;28;19912;-82
2023/08/26 02:34:02;;;;;;;;;;;;;;;28.25;54.80;101224.03;5125234;28;19916;-81
2023/08/26 02:36:27;;;;;;;;;;;;;;;28.23;54.76;101230.28;5114118;28;19988;-81
2023/08/26 02:38:52;;;;;;;;;;;;;;;28.18;54.79;101226.78;5118538;28;20354;-83
2023/08/26 02:41:18;;;;;;;;;;;;;;;28.22;54.87;101236.59;5112203;28;20372;-84
2023/08/26 02:43:43;;;;;;;;;;;;;;;28.16;54.74;101225.03;5111968;27;20576;-84
2023/08/26 02:46:09;;;;;;;;;;;;;;;28.20;54.75;101230.34;5111990;28;20389;-83
2023/08/26 02:48:34;;;;;;;;;;;;;;;28.22;54.44;101230.34;5111842;28;20343;-82
2023/08/26 02:51:01;;;;;;;;;;;;;;;28.17;54.70;101230.41;5113548;28;19911;-82
2023/08/26 02:53:27;;;;;;;;;;;;;;;28.19;54.48;101235.72;5112619;28;19968;-83
2023/08/26 02:55:55;;;;;;;;;;;;;;;28.20;54.54;101227.66;5135393;27;19963;-83
2023/08/26 02:58:21;;;;;;;;;;;;;;;28.20;54.40;101238.41;5135937;27;19912;-83
2023/08/26 03:00:47;;;;;;;;;;;;;;;28.19;54.44;101235.72;5114117;28;19923;-84
2023/08/26 03:03:12;;;;;;;;;;;;;;;28.17;54.51;101232.16;5127540;27;20384;-82
2023/08/26 03:05:38;;;;;;;;;;;;;;;28.18;54.75;101231.28;5125089;28;19923;-83
2023/08/26 03:08:03;;;;;;;;;;;;;;;28.18;54.82;101236.66;5114769;28;19911;-83
2023/08/26 03:10:29;;;;;;;;;;;;;;;28.16;54.56;101239.34;5122186;28;20437;-82
2023/08/26 03:12:54;;;;;;;;;;;;;;;28.14;54.80;101235.78;5142700;27;19938;-83
2023/08/26 03:15:20;;;;;;;;;;;;;;;28.17;54.51;101235.78;5133536;27;19911;-83
2023/08/26 03:17:45;;;;;;;;;;;;;;;28.15;54.50;101239.34;5134968;27;19915;-82
2023/08/26 03:20:11;;;;;;;;;;;;;;;28.12;54.63;101242.09;5118679;28;20366;-83
2023/08/26 03:22:36;;;;;;;;;;;;;;;28.15;54.55;101239.34;5119500;28;20395;-83
2023/08/26 03:25:02;;;;;;;;;;;;;;;28.14;54.47;101246.53;5128288;27;20277;-82
2023/08/26 03:27:27;;;;;;;;;;;;;;;28.13;54.50;101246.53;5127037;28;20444;-82
2023/08/26 03:29:53;;;;;;;;;;;;;;;28.13;54.30;101249.22;5123886;28;19916;-82
2023/08/26 03:32:18;;;;;;;;;;;;;;;28.13;54.53;101260.88;5121019;28;19916;-83
2023/08/26 03:34:44;;;;;;;;;;;;;;;28.10;54.34;101260.00;5112354;27;20324;-83
2023/08/26 03:37:10;;;;;;;;;;;;;;;28.07;54.72;101252.88;5122554;28;20478;-83
2023/08/26 03:39:39;;;;;;;;;;;;;;;28.09;54.46;101256.44;5123513;27;19926;-83
2023/08/26 03:42:05;;;;;;;;;;;;;;;28.11;54.59;101249.25;5139661;27;19915;-83
2023/08/26 03:44:30;;;;;;;;;;;;;;;28.07;54.51;101255.56;5117604;27;20448;-82
2023/08/26 03:46:56;;;;;;;;;;;;;;;28.06;54.46;101260.94;5121593;27;20316;-82
2023/08/26 03:49:21;;;;;;;;;;;;;;;28.07;54.40;101258.25;5115776;27;20309;-82
2023/08/26 03:51:46;;;;;;;;;;;;;;;28.04;54.70;101257.38;5109296;27;19915;-83
2023/08/26 03:54:12;;;;;;;;;;;;;;;28.04;54.55;101252.03;5121320;27;19998;-82
2023/08/26 03:56:37;;;;;;;;;;;;;;;28.05;54.47;101257.38;5119925;27;19965;-82
2023/08/26 03:59:03;;;;;;;;;;;;;;;28.06;nan;101259.13;5131312;27;19915;-83
2023/08/26 04:01:31;;;;;;;;;;;;;;;28.05;54.32;101253.81;5132238;27;19941;-83
2023/08/26 04:03:56;;;;;;;;;;;;;;;28.00;54.47;101249.38;5114594;27;19975;-83
2023/08/26 04:06:22;;;;;;;;;;;;;;;28.06;54.41;101244.84;5108091;27;19911;-83
2023/08/26 04:08:48;;;;;;;;;;;;;;;28.05;54.26;101252.00;5121506;27;19926;-84
2023/08/26 04:11:15;;;;;;;;;;;;;;;28.03;54.55;101251.13;5117500;27;19911;-84
2023/08/26 04:13:40;;;;;;;;;;;;;;;28.05;54.29;101252.00;5115169;27;19924;-84
2023/08/26 04:16:06;;;;;;;;;;;;;;;28.04;54.40;101250.22;5116242;27;20309;-83
2023/08/26 04:18:31;;;;;;;;;;;;;;;28.01;54.23;101244.88;5112117;27;19920;-82
2023/08/26 04:20:57;;;;;;;;;;;;;;;27.95;54.72;101240.47;5124811;27;19912;-83
2023/08/26 04:23:22;;;;;;;;;;;;;;;27.99;54.35;101250.28;5125999;27;19920;-84
2023/08/26 04:25:48;;;;;;;;;;;;;;;28.00;54.41;101251.16;5107965;27;20410;-84
2023/08/26 04:28:14;;;;;;;;;;;;;;;27.93;54.75;101247.66;5114402;27;19915;-84
2023/08/26 04:30:40;;;;;;;;;;;;;;;27.94;54.46;101253.91;5129123;27;19951;-83
2023/08/26 04:33:05;;;;;;;;;;;;;;;27.95;54.35;101253.88;5125359;27;19919;-83
2023/08/26 04:35:31;;;;;;;;;;;;;;;27.95;54.29;101248.53;5114242;27;19922;-84
2023/08/26 04:37:57;;;;;;;;;;;;;;;27.96;54.27;101254.78;5132830;27;19937;-83
2023/08/26 04:40:22;;;;;;;;;;;;;;;27.98;54.42;101261.00;5119858;27;19945;-84
2023/08/26 04:42:48;;;;;;;;;;;;;;;27.94;54.21;101262.88;5119130;27;20385;-83
2023/08/26 04:45:15;;;;;;;;;;;;;;;27.93;54.41;101266.44;5132459;27;20281;-83
2023/08/26 04:47:41;;;;;;;;;;;;;;;27.92;54.33;101264.66;5116896;27;19919;-84
2023/08/26 04:50:07;;;;;;;;;;;;;;;27.99;54.50;101270.88;5103249;27;19920;-84
2023/08/26 04:52:32;;;;;;;;;;;;;;;27.99;54.25;101274.44;5100855;28;19923;-84
2023/08/26 04:54:58;;;;;;;;;;;;;;;27.99;54.40;101265.50;5106853;28;20385;-84
2023/08/26 04:57:23;;;;;;;;;;;;;;;27.97;54.54;101267.31;5103053;27;20560;-84
2023/08/26 04:59:49;;;;;;;;;;;;;;;27.96;54.37;101269.09;5109101;27;19998;-85
2023/08/26 05:02:16;;;;;;;;;;;;;;;27.97;54.21;101262.81;5108546;28;20916;-84
2023/08/26 05:04:41;;;;;;;;;;;;;;;27.93;54.41;101273.59;5103530;27;20488;-83
2023/08/26 05:07:07;;;;;;;;;;;;;;;27.93;54.38;101263.75;5099850;28;20006;-83
2023/08/26 05:09:32;;;;;;;;;;;;;;;27.93;54.17;101268.25;5098574;27;20378;-82
2023/08/26 05:11:58;;;;;;;;;;;;;;;27.94;54.36;101265.53;5108338;28;19916;-82
2023/08/26 05:14:24;;;;;;;;;;;;;;;27.95;54.40;101256.56;5110690;27;19963;-85
2023/08/26 05:16:50;;;;;;;;;;;;;;;27.95;54.27;101258.38;5103567;28;19916;-84
2023/08/26 05:19:15;;;;;;;;;;;;;;;27.96;54.32;101262.81;5082461;28;20369;-83
2023/08/26 05:21:41;;;;;;;;;;;;;;;27.95;54.31;101263.75;5101889;28;20007;-83
2023/08/26 05:24:06;;;;;;;;;;;;;;;27.96;54.53;101261.06;5092781;28;20380;-84
2023/08/26 05:26:32;;;;;;;;;;;;;;;27.92;54.31;101258.38;5092614;28;20504;-82
2023/08/26 05:28:58;;;;;;;;;;;;;;;27.92;54.29;101253.94;5091261;28;19955;-84
2023/08/26 05:31:23;;;;;;;;;;;;;;;27.95;54.36;101259.25;5106711;28;19958;-82
2023/08/26 05:33:49;;;;;;;;;;;;;;;27.93;54.24;101260.19;5113965;27;20282;-82
2023/08/26 05:36:14;;;;;;;;;;;;;;;27.94;54.32;101262.88;5094546;28;19927;-83
2023/08/26 05:38:39;;;;;;;;;;;;;;;27.94;54.36;101257.50;5091699;28;20423;-83
2023/08/26 05:41:05;;;;;;;;;;;;;;;27.95;54.44;101258.38;5094555;28;20441;-83
2023/08/26 05:43:31;;;;;;;;;;;;;;;27.93;54.46;101255.69;5102407;28;19912;-86
2023/08/26 05:45:56;;;;;;;;;;;;;;;27.93;54.23;101258.38;5112997;27;19930;-86
2023/08/26 05:48:22;;;;;;;;;;;;;;;27.94;54.32;101254.81;5129951;27;20393;-87
2023/08/26 05:50:47;;;;;;;;;;;;;;;27.96;54.35;101262.81;5105028;27;19912;-86
2023/08/26 05:53:13;;;;;;;;;;;;;;;27.97;54.48;101262.81;5120374;27;19922;-86
2023/08/26 05:55:40;;;;;;;;;;;;;;;27.99;54.23;101262.81;5116774;28;19912;-85
2023/08/26 05:58:05;;;;;;;;;;;;;;;27.88;54.96;101259.34;5137911;27;19911;-86
2023/08/26 06:00:31;;;;;;;;;;;;;;;27.85;54.77;101257.53;5117066;27;19984;-85
2023/08/26 06:02:56;;;;;;;;;;;;;;;27.99;54.03;101261.00;5126577;27;19920;-85
2023/08/26 06:05:22;;;;;;;;;;;;;;;27.92;53.89;101263.75;5126302;27;19953;-84
2023/08/26 06:07:48;;;;;;;;;;;;;;;28.04;52.83;101265.44;5120614;27;19980;-84
2023/08/26 06:10:15;;;;;;;;;;;;;;;27.90;52.28;101268.25;5121006;27;19915;-85
2023/08/26 06:12:41;;;;;;;;;;;;;;;28.16;50.91;101265.31;5131310;27;20431;-85
2023/08/26 06:15:06;;;;;;;;;;;;;;;28.26;50.37;101268.78;5114042;27;20389;-84
2023/08/26 06:17:34;;;;;;;;;;;;;;;28.38;49.62;101272.19;5126383;27;19911;-85
2023/08/26 06:19:59;;;;;;;;;;;;;;;28.42;49.44;101273.06;5124274;27;20003;-84
2023/08/26 06:22:25;;;;;;;;;;;;;;;28.49;49.04;101274.81;5122015;27;20010;-83
2023/08/26 06:24:50;;;;;;;;;;;;;;;28.52;48.60;101282.84;5125984;27;20333;-84
2023/08/26 06:27:16;;;;;;;;;;;;;;;28.42;49.00;101289.19;5133918;27;19915;-82
2023/08/26 06:29:47;;;;;;;;;;;;;;;28.52;48.36;101279.25;5129276;27;19923;-83
2023/08/26 06:32:12;;;;;;;;;;;;;;;28.57;47.90;101288.16;5131813;28;20425;-83
2023/08/26 06:34:37;;;;;;;;;;;;;;;28.62;47.85;101289.00;5135821;27;19911;-83
2023/08/26 06:37:03;;;;;;;;;;;;;;;28.62;47.72;101303.31;5127838;28;20376;-84
2023/08/26 06:39:28;;;;;;;;;;;;;;;28.59;47.73;101302.47;5131016;27;20337;-84
2023/08/26 06:41:54;;;;;;;;;;;;;;;28.71;47.48;101306.81;5103516;28;19919;-83
2023/08/26 06:44:19;;;;;;;;;;;;;;;28.59;47.80;101300.66;5100971;28;19915;-83
2023/08/26 06:46:45;;;;;;;;;;;;;;;28.58;47.56;101308.75;5123803;27;20277;-84
2023/08/26 06:49:10;;;;;;;;;;;;;;;28.66;47.35;101306.88;5112383;28;20297;-85
2023/08/26 06:51:35;;;;;;;;;;;;;;;28.71;47.23;101304.13;5122705;28;20568;-86
2023/08/26 06:54:01;;;;;;;;;;;;;;;28.73;46.95;101313.94;5114169;27;20613;-84
2023/08/26 06:56:27;;;;;;;;;;;;;;;28.66;46.99;101314.94;5093846;28;20304;-84
2023/08/26 06:58:52;;;;;;;;;;;;;;;28.84;46.70;101316.47;5111785;28;19919;-85
2023/08/26 07:01:18;;;;;;;;;;;;;;;28.86;46.56;101306.59;5116719;28;19922;-85
2023/08/26 07:03:43;;;;;;;;;;;;;;;28.78;46.69;101309.38;5130962;28;19923;-85
2023/08/26 07:06:18;;;;;;;;;;;;;;;28.74;46.70;101314.81;5134842;27;20289;-85
2023/08/26 07:08:44;;;;;;;;;;;;;;;28.81;46.59;101305.78;5133508;27;19926;-84
2023/08/26 07:11:10;;;;;;;;;;;;;;;28.69;46.89;101312.19;5130002;28;19974;-85
2023/08/26 07:13:38;;;;;;;;;;;;;;;28.77;46.65;101312.09;5132945;27;20407;-85
2023/08/26 07:16:04;;;;;;;;;;;;;;;28.80;46.38;101306.66;5107144;27;20358;-85
2023/08/26 07:18:29;;;;;;;;;;;;;;;28.92;45.94;101309.19;5119419;27;19916;-85
2023/08/26 07:20:57;;;;;;;;;;;;;;;28.95;46.03;101306.47;5117461;27;19911;-85
2023/08/26 07:23:22;;;;;;;;;;;;;;;28.91;46.14;101303.84;5115587;27;19930;-85
2023/08/26 07:25:48;;;;;;;;;;;;;;;28.85;46.31;101314.66;5129865;27;19938;-85
2023/08/26 07:28:13;;;;;;;;;;;;;;;29.08;45.54;101311.69;5124789;27;19950;-85
2023/08/26 07:30:39;;;;;;;;;;;;;;;28.94;45.66;101310.06;5116592;28;19966;-86
2023/08/26 07:33:04;;;;;;;;;;;;;;;28.96;45.64;101318.13;5105086;28;19911;-85
2023/08/26 07:35:30;;;;;;;;;;;;;;;28.88;46.03;101320.91;5131201;27;20323;-85
2023/08/26 07:37:55;;;;;;;;;;;;;;;28.95;45.63;101319.91;5123655;27;20411;-85
2023/08/26 07:40:20;;;;;;;;;;;;;;;28.90;45.75;101318.22;5122960;27;19961;-85
2023/08/26 07:42:46;;;;;;;;;;;;;;;28.99;45.68;101316.25;5130959;27;19923;-85
2023/08/26 07:45:11;;;;;;;;;;;;;;;28.92;45.87;101321.78;5129421;27;19918;-84
2023/08/26 07:47:38;;;;;;;;;;;;;;;28.83;45.83;101317.41;5124192;27;20324;-83
2023/08/26 07:50:03;;;;;;;;;;;;;;;28.94;45.76;101320.84;5114038;28;20307;-84
2023/08/26 07:52:29;;;;;;;;;;;;;;;29.05;45.56;101320.69;5103651;27;20479;-83
2023/08/26 07:54:54;;;;;;;;;;;;;;;29.00;45.42;101322.56;5130125;27;19911;-83
2023/08/26 07:57:20;;;;;;;;;;;;;;;28.94;45.38;101323.53;5121963;27;20553;-84
2023/08/26 07:59:45;;;;;;;;;;;;;;;28.97;45.51;101323.47;5113269;28;19912;-84
2023/08/26 08:02:11;;;;;;;;;;;;;;;28.95;45.21;101319.91;5129877;27;19919;-83
2023/08/26 08:04:36;;;;;;;;;;;;;;;28.98;45.18;101321.69;5125102;27;19916;-84
2023/08/26 08:07:01;;;;;;;;;;;;;;;28.90;45.37;101313.72;5115997;28;19912;-83
2023/08/26 08:09:27;;;;;;;;;;;;;;;29.06;45.05;101326.94;5122984;27;19927;-84
2023/08/26 08:11:52;;;;;;;;;;;;;;;29.05;44.92;101320.69;5121128;27;20311;-83
2023/08/26 08:14:18;;;;;;;;;;;;;;;29.13;44.77;101323.31;5124351;27;20340;-83
2023/08/26 08:16:43;;;;;;;;;;;;;;;29.11;44.69;101320.63;5130080;27;19916;-85
2023/08/26 08:19:09;;;;;;;;;;;;;;;29.16;44.79;101321.44;5116771;28;19912;-85
2023/08/26 08:21:34;;;;;;;;;;;;;;;29.16;44.70;101324.13;5126835;27;19953;-84
2023/08/26 08:24:00;;;;;;;;;;;;;;;28.99;45.04;101310.88;5114518;28;20399;-86
2023/08/26 08:26:25;;;;;;;;;;;;;;;29.07;44.72;101316.16;5116285;27;19912;-83
2023/08/26 08:28:51;;;;;;;;;;;;;;;29.12;44.62;101313.44;5137742;27;19923;-83
2023/08/26 08:31:16;;;;;;;;;;;;;;;29.14;44.49;101315.19;5137373;27;20419;-84
2023/08/26 08:33:42;;;;;;;;;;;;;;;29.17;44.52;101319.66;5128198;27;20009;-84
2023/08/26 08:36:07;;;;;;;;;;;;;;;29.11;44.60;101312.56;5117785;27;19915;-85
2023/08/26 08:38:33;;;;;;;;;;;;;;;29.19;44.50;101313.34;5113874;27;20381;-85
2023/08/26 08:40:59;;;;;;;;;;;;;;;29.23;44.37;101317.78;5126240;27;19958;-85
2023/08/26 08:43:24;;;;;;;;;;;;;;;29.33;44.16;101314.94;5114353;28;19916;-85
2023/08/26 08:45:49;;;;;;;;;;;;;;;29.15;44.49;101317.00;5100818;28;19920;-84
2023/08/26 08:48:15;;;;;;;;;;;;;;;29.32;44.19;101311.34;5105095;28;20015;-85
2023/08/26 08:50:42;;;;;;;;;;;;;;;29.15;44.24;101311.59;5110418;28;20354;-83
2023/08/26 08:53:07;;;;;;;;;;;;;;;29.19;44.58;101326.78;5102271;28;19912;-84
2023/08/26 08:55:33;;;;;;;;;;;;;;;29.28;44.32;101309.63;5093341;28;20035;-83
2023/08/26 08:57:58;;;;;;;;;;;;;;;29.28;44.11;101309.63;5104328;28;20384;-83
2023/08/26 09:00:24;;;;;;;;;;;;;;;29.21;44.24;101313.31;5095941;27;20025;-83
2023/08/26 09:02:50;;;;;;;;;;;;;;;29.33;44.04;101315.81;5103757;28;19972;-83
2023/08/26 09:05:16;;;;;;;;;;;;;;;29.27;44.25;101310.53;5090604;28;20002;-84
2023/08/26 09:07:41;;;;;;;;;;;;;;;29.16;44.29;101318.75;5085815;28;20350;-83
2023/08/26 09:10:08;;;;;;;;;;;;;;;29.16;44.34;101318.75;5109718;27;19920;-83
2023/08/26 09:12:33;;;;;;;;;;;;;;;29.44;43.60;101318.34;5109928;28;20388;-83
2023/08/26 09:14:59;;;;;;;;;;;;;;;29.35;43.77;101311.31;5108802;27;20340;-83
2023/08/26 09:17:24;;;;;;;;;;;;;;;29.26;44.15;101322.22;5105569;28;20327;-84
2023/08/26 09:19:53;;;;;;;;;;;;;;;29.33;43.68;101305.06;5091211;28;19967;-83
2023/08/26 09:22:20;;;;;;;;;;;;;;;29.31;43.83;101317.63;5094594;28;19922;-82
2023/08/26 09:24:46;;;;;;;;;;;;;;;29.31;43.68;101314.94;5093234;28;19920;-82
2023/08/26 09:27:12;;;;;;;;;;;;;;;29.30;43.80;101313.19;5107621;28;19923;-82
2023/08/26 09:29:38;;;;;;;;;;;;;;;29.35;43.51;101310.41;5090569;28;19919;-83
2023/08/26 09:32:03;;;;;;;;;;;;;;;29.31;43.64;101309.56;5098059;27;19922;-84
2023/08/26 09:34:30;;;;;;;;;;;;;;;29.26;43.84;101318.63;5093156;28;20020;-84
2023/08/26 09:36:56;;;;;;;;;;;;;;;29.35;43.60;101307.72;5104757;28;19919;-83
2023/08/26 09:39:21;;;;;;;;;;;;;;;29.41;43.51;101313.91;5099223;28;19916;-81
2023/08/26 09:41:47;;;;;;;;;;;;;;;29.39;43.42;101306.78;5090272;28;19926;-83
2023/08/26 09:44:13;;;;;;;;;;;;;;;29.47;43.39;101307.53;5086146;28;19973;-83
2023/08/26 09:46:42;;;;;;;;;;;;;;;29.32;43.63;101292.53;5115976;27;19923;-82
2023/08/26 09:49:11;;;;;;;;;;;;;;;29.38;43.70;101299.59;5090435;28;19919;-84
2023/08/26 09:51:37;;;;;;;;;;;;;;;29.34;43.65;101305.97;5111229;27;19988;-85
2023/08/26 09:54:02;;;;;;;;;;;;;;;29.41;43.59;101296.88;5123150;27;20414;-85
2023/08/26 09:56:28;;;;;;;;;;;;;;;29.49;43.57;101297.66;5109786;28;20380;-84
2023/08/26 09:58:53;;;;;;;;;;;;;;;29.50;43.20;101296.72;5129104;27;20396;-84
2023/08/26 10:01:20;;;;;;;;;;;;;;;29.56;43.11;101298.44;5140073;27;19971;-84
2023/08/26 10:03:47;;;;;;;;;;;;;;;29.39;43.35;101296.00;5096081;27;19916;-84
2023/08/26 10:06:12;;;;;;;;;;;;;;;29.42;43.62;101294.16;5100748;27;20006;-83
2023/08/26 10:08:38;;;;;;;;;;;;;;;29.50;43.16;101290.44;5122919;27;20455;-83
2023/08/26 10:11:03;;;;;;;;;;;;;;;29.53;43.35;101296.69;5089377;28;20424;-83
2023/08/26 10:13:29;;;;;;;;;;;;;;;29.52;43.15;101286.81;5122924;27;19923;-83
2023/08/26 10:15:55;;;;;;;;;;;;;;;29.58;43.31;101289.41;5119833;27;20360;-84
2023/08/26 10:18:34;;;;;;;;;;;;;;;29.51;43.16;101285.06;5096009;27;19963;-84
2023/08/26 10:21:00;;;;;;;;;;;;;;;29.62;43.05;101288.44;5086868;27;19916;-82
2023/08/26 10:23:26;;;;;;;;;;;;;;;29.58;43.11;101286.72;5131913;27;19979;-83
2023/08/26 10:25:51;;;;;;;;;;;;;;;29.65;43.12;101282.13;5127962;27;19915;-84
2023/08/26 10:28:24;;;;;;;;;;;;;;;29.60;43.02;101290.28;5112126;28;20377;-84
2023/08/26 10:30:50;;;;;;;;;;;;;;;29.60;43.03;101289.41;5099242;27;19927;-82
2023/08/26 10:33:18;;;;;;;;;;;;;;;29.67;43.16;101285.66;5090573;28;20380;-84
2023/08/26 10:35:46;;;;;;;;;;;;;;;29.70;43.05;101291.06;5111869;28;20452;-82
2023/08/26 10:38:12;;;;;;;;;;;;;;;29.69;42.82;101291.03;5123475;28;20004;-82
2023/08/26 10:40:38;;;;;;;;;;;;;;;29.69;43.04;101286.53;5111913;28;19919;-83
2023/08/26 10:43:07;;;;;;;;;;;;;;;29.73;42.88;101293.69;5121164;27;20361;-82
2023/08/26 10:45:33;;;;;;;;;;;;;;;29.71;42.88;101294.63;5117826;27;19911;-83
2023/08/26 10:48:00;;;;;;;;;;;;;;;29.74;42.88;101291.88;5113212;28;19912;-83
2023/08/26 10:50:26;;;;;;;;;;;;;;;29.81;42.67;101294.44;5118923;27;20037;-83
2023/08/26 10:52:53;;;;;;;;;;;;;;;29.73;42.87;101282.03;5133165;27;19915;-83
2023/08/26 10:55:19;;;;;;;;;;;;;;;29.74;43.13;101289.19;5124151;27;20348;-83
2023/08/26 10:58:15;;;;;;;;;;;;;;;29.68;43.05;101286.59;5120311;27;19928;-83
2023/08/26 11:00:44;;;;;;;;;;;;;;;29.79;43.17;101292.69;5115331;27;19964;-83
2023/08/26 11:03:10;;;;;;;;;;;;;;;29.65;43.24;101292.88;5121087;27;19975;-83
2023/08/26 11:05:36;;;;;;;;;;;;;;;29.69;43.17;101288.34;5124142;27;19916;-83
2023/08/26 11:08:02;;;;;;;;;;;;;;;29.76;43.05;101290.94;5128209;27;20037;-84
2023/08/26 11:10:29;;;;;;;;;;;;;;;29.77;43.09;101278.38;5114614;28;20015;-84
2023/08/26 11:12:54;;;;;;;;;;;;;;;29.85;42.78;101287.19;5117888;27;19994;-83
2023/08/26 11:15:20;;;;;;;;;;;;;;;29.90;42.66;101290.69;5121843;27;20403;-83
2023/08/26 11:17:47;;;;;;;;;;;;;;;29.87;42.75;101292.53;5115615;28;19916;-83
2023/08/26 11:20:12;;;;;;;;;;;;;;;29.90;42.82;101285.31;5122214;27;19916;-84
2023/08/26 11:22:38;;;;;;;;;;;;;;;30.04;42.67;101285.94;5117297;27;19919;-83
2023/08/26 11:25:03;;;;;;;;;;;;;;;30.04;42.57;101272.47;5114711;28;20441;-83
2023/08/26 11:27:32;;;;;;;;;;;;;;;29.93;42.58;101277.19;5122967;27;19937;-85
2023/08/26 11:29:57;;;;;;;;;;;;;;;30.00;42.77;101278.84;5115430;27;19922;-83
2023/08/26 11:32:23;;;;;;;;;;;;;;;29.95;43.10;101278.06;5123962;27;19915;-85
2023/08/26 11:34:49;;;;;;;;;;;;;;;29.99;42.87;101279.78;5114113;27;19922;-87
2023/08/26 11:37:18;;;;;;;;;;;;;;;30.10;42.71;101278.66;5113779;28;20311;-87
2023/08/26 11:39:47;;;;;;;;;;;;;;;29.89;42.92;101280.84;5104772;28;20293;-87
2023/08/26 11:42:15;;;;;;;;;;;;;;;29.98;43.02;101272.59;5090947;28;19919;-86
2023/08/26 11:44:44;;;;;;;;;;;;;;;29.88;43.26;101276.38;5104022;27;19922;-87
2023/08/26 11:47:11;;;;;;;;;;;;;;;29.99;43.00;101278.84;5119430;27;19926;-86
2023/08/26 11:49:37;;;;;;;;;;;;;;;30.05;42.86;101267.97;5115459;27;20026;-87
2023/08/26 11:52:02;;;;;;;;;;;;;;;29.99;43.14;101270.78;5123078;27;20475;-85
2023/08/26 11:54:28;;;;;;;;;;;;;;;29.98;42.90;101272.59;5121255;27;19923;-84
2023/08/26 11:56:54;;;;;;;;;;;;;;;30.09;42.89;101266.13;5123001;27;20311;-85
2023/08/26 11:59:22;;;;;;;;;;;;;;;30.10;42.90;101270.56;5089154;28;20400;-86
2023/08/26 12:01:48;;;;;;;;;;;;;;;30.07;43.20;101265.25;5112631;27;19940;-83
2023/08/26 12:04:16;;;;;;;;;;;;;;;30.03;42.84;101267.13;5126649;27;20035;-86
2023/08/26 12:06:42;;;;;;;;;;;;;;;30.02;43.01;101265.34;5113724;27;20395;-85
2023/08/26 12:09:11;;;;;;;;;;;;;;;30.08;42.81;101258.94;5132138;27;19919;-84
2023/08/26 12:11:40;;;;;;;;;;;;;;;30.17;42.64;101261.47;5123185;27;19947;-84
2023/08/26 12:14:18;;;;;;;;;;;;;;;30.26;42.51;101263.09;5121508;27;20360;-84
2023/08/26 12:16:44;;;;;;;;;;;;;;;30.13;42.86;101257.06;5120283;27;19938;-85
2023/08/26 12:19:18;;;;;;;;;;;;;;;30.13;42.94;101266.03;5126725;27;20319;-85
2023/08/26 12:21:50;;;;;;;;;;;;;;;30.08;43.03;101257.16;5117181;27;19915;-84
2023/08/26 12:24:20;;;;;;;;;;;;;;;30.18;42.79;101252.47;5118034;27;19916;-84
2023/08/26 12:26:47;;;;;;;;;;;;;;;30.25;42.64;101248.75;5105699;27;19983;-85
2023/08/26 12:29:13;;;;;;;;;;;;;;;30.14;42.76;101254.34;5123272;27;19919;-86
2023/08/26 12:31:38;;;;;;;;;;;;;;;30.16;43.77;101243.53;5126304;27;19991;-84